createdAt,value
2023-03-12T00:02:08.810Z,93.56
2023-03-12T00:07:15.028Z,93.71
2023-03-12T00:12:19.402Z,93.85
2023-03-12T00:17:23.500Z,93.80
2023-03-12T00:22:27.810Z,93.84
2023-03-12T00:27:34.841Z,93.83
2023-03-12T00:32:39.255Z,94.19
2023-03-12T00:37:43.329Z,94.14
2023-03-12T00:42:47.375Z,94.22
2023-03-12T00:47:51.778Z,93.90
2023-03-12T00:52:56.537Z,94.29
2023-03-12T00:58:00.373Z,94.08
2023-03-12T01:03:04.722Z,94.22
2023-03-12T01:08:09.797Z,94.29
2023-03-12T01:13:16.957Z,94.12
2023-03-12T01:18:21.876Z,94.12
2023-03-12T01:23:26.590Z,94.46
2023-03-12T01:28:30.900Z,94.41
2023-03-12T01:33:34.922Z,94.26
2023-03-12T01:38:41.729Z,94.01
2023-03-12T01:43:46.947Z,93.84
2023-03-12T01:49:20.745Z,93.69
2023-03-12T01:54:35.498Z,94.05
2023-03-12T01:59:44.806Z,94.06
2023-03-12T02:04:52.263Z,93.98
2023-03-12T02:09:57.712Z,93.84
2023-03-12T02:15:02.452Z,93.87
2023-03-12T02:20:37.742Z,94.08
2023-03-12T02:25:47.584Z,94.01
2023-03-12T02:30:53.448Z,94.10
2023-03-12T02:35:58.566Z,93.95
2023-03-12T02:41:24.955Z,93.78
2023-03-12T02:46:34.096Z,93.81
2023-03-12T02:51:38.076Z,93.82
2023-03-12T02:56:43.704Z,93.38
2023-03-12T03:01:48.316Z,93.17
2023-03-12T03:06:52.888Z,93.32
2023-03-12T03:11:57.985Z,93.22
2023-03-12T03:17:03.551Z,92.89
2023-03-12T03:22:08.082Z,93.06
2023-03-12T03:27:12.769Z,93.10
2023-03-12T03:32:18.423Z,92.64
2023-03-12T03:37:24.136Z,92.50
2023-03-12T03:42:29.045Z,92.55
2023-03-12T03:47:34.022Z,92.52
2023-03-12T03:52:40.240Z,92.63
2023-03-12T03:57:44.945Z,92.59
2023-03-12T04:02:50.279Z,92.30
2023-03-12T04:07:57.035Z,92.07
2023-03-12T04:13:02.517Z,92.16
2023-03-12T04:18:07.646Z,92.06
2023-03-12T04:23:12.396Z,92.07
2023-03-12T04:28:16.986Z,92.12
2023-03-12T04:33:22.955Z,91.98
2023-03-12T04:38:30.435Z,91.82
2023-03-12T04:43:36.475Z,92.01
2023-03-12T04:48:40.632Z,91.67
2023-03-12T04:53:46.638Z,91.46
2023-03-12T04:58:51.021Z,91.28
2023-03-12T05:03:55.936Z,90.79
2023-03-12T05:09:02.033Z,90.82
2023-03-12T05:14:07.743Z,90.98
2023-03-12T05:19:12.929Z,90.93
2023-03-12T05:24:19.630Z,90.47
2023-03-12T05:29:24.144Z,90.39
2023-03-12T05:34:32.206Z,90.45
2023-03-12T05:39:39.160Z,90.10
2023-03-12T05:44:43.762Z,90.50
2023-03-12T05:49:53.943Z,90.66
2023-03-12T05:54:59.698Z,90.16
2023-03-12T06:00:04.889Z,90.29
2023-03-12T06:05:17.347Z,89.81
2023-03-12T06:10:21.623Z,90.09
2023-03-12T06:15:26.896Z,89.55
2023-03-12T06:20:31.941Z,89.37
2023-03-12T06:25:36.630Z,89.40
2023-03-12T06:30:42.350Z,88.67
2023-03-12T06:35:46.847Z,88.54
2023-03-12T06:41:00.437Z,88.85
2023-03-12T06:46:07.513Z,88.45
2023-03-12T06:51:14.216Z,86.98
2023-03-12T06:56:20.341Z,87.29
2023-03-12T07:01:24.420Z,87.21
2023-03-12T07:06:29.712Z,86.99
2023-03-12T07:11:34.104Z,86.16
2023-03-12T07:16:38.048Z,86.39
2023-03-12T07:21:42.390Z,85.56
2023-03-12T07:26:47.345Z,85.29
2023-03-12T07:31:51.750Z,85.25
2023-03-12T07:36:57.093Z,84.26
2023-03-12T07:42:01.279Z,83.64
2023-03-12T07:47:22.712Z,83.99
2023-03-12T07:52:27.561Z,84.55
2023-03-12T07:57:32.348Z,84.15
2023-03-12T08:02:37.733Z,82.72
2023-03-12T08:07:42.267Z,82.78
2023-03-12T08:12:47.061Z,83.15
2023-03-12T08:17:52.002Z,82.54
2023-03-12T08:22:55.973Z,81.68
2023-03-12T08:27:59.805Z,81.77
2023-03-12T08:33:04.937Z,82.57
2023-03-12T08:38:09.386Z,82.80
2023-03-12T08:43:14.205Z,82.00
2023-03-12T08:48:18.409Z,81.64
2023-03-12T08:53:23.838Z,82.47
2023-03-12T08:58:29.334Z,82.68
2023-03-12T09:03:33.649Z,82.86
2023-03-12T09:08:38.535Z,83.17
2023-03-12T09:14:16.913Z,81.38
2023-03-12T09:19:09.603Z,82.40
2023-03-12T09:24:14.247Z,81.23
2023-03-12T09:29:21.398Z,81.33
2023-03-12T09:34:27.657Z,81.45
2023-03-12T09:39:31.999Z,81.26
2023-03-12T09:44:43.733Z,79.74
2023-03-12T09:49:51.502Z,80.97
2023-03-12T09:55:03.204Z,79.55
2023-03-12T10:00:19.152Z,79.03
2023-03-12T10:05:45.222Z,77.85
2023-03-12T10:11:27.869Z,77.95
2023-03-12T10:16:35.746Z,76.40
2023-03-12T10:22:21.577Z,77.29
2023-03-12T10:27:30.308Z,78.11
2023-03-12T10:32:44.894Z,77.38
2023-03-12T10:38:02.302Z,78.01
2023-03-12T10:43:07.717Z,77.73
2023-03-12T10:48:19.581Z,76.77
2023-03-12T10:53:30.091Z,77.09
2023-03-12T10:58:54.512Z,77.00
2023-03-12T11:04:18.180Z,77.85
2023-03-12T11:09:22.371Z,76.26
2023-03-12T11:14:30.953Z,75.51
2023-03-12T11:19:36.162Z,77.08
2023-03-12T11:25:02.159Z,76.66
2023-03-12T11:30:09.384Z,75.36
2023-03-12T11:35:15.513Z,75.03
2023-03-12T11:40:39.325Z,73.39
2023-03-12T11:46:02.519Z,75.31
2023-03-12T11:51:39.741Z,76.22
2023-03-12T11:57:13.732Z,75.55
2023-03-12T12:02:48.672Z,73.86
2023-03-12T12:08:12.572Z,74.60
2023-03-12T12:13:44.003Z,73.87
2023-03-12T12:19:27.283Z,73.06
2023-03-12T12:24:41.977Z,72.91
2023-03-12T12:30:08.652Z,70.09
2023-03-12T12:35:34.627Z,71.75
2023-03-12T12:40:49.994Z,68.31
2023-03-12T12:45:58.804Z,71.02
2023-03-12T12:51:06.944Z,71.10
2023-03-12T12:56:23.451Z,70.58
2023-03-12T13:01:28.097Z,71.14
2023-03-12T13:07:04.848Z,67.46
2023-03-12T13:12:33.544Z,68.08
2023-03-12T13:17:54.057Z,66.22
2023-03-12T13:23:23.950Z,67.53
2023-03-12T13:29:05.984Z,65.55
2023-03-12T13:34:19.768Z,66.67
2023-03-12T13:39:35.499Z,66.51
2023-03-12T13:44:40.871Z,65.87
2023-03-12T13:49:54.302Z,63.59
2023-03-12T13:55:22.200Z,65.00
2023-03-12T14:00:38.245Z,66.62
2023-03-12T14:05:56.247Z,66.86
2023-03-12T14:11:19.930Z,66.57
2023-03-12T14:16:29.097Z,66.45
2023-03-12T14:21:39.966Z,66.62
2023-03-12T14:26:46.248Z,66.73
2023-03-12T14:31:56.850Z,66.02
2023-03-12T14:37:16.699Z,66.01
2023-03-12T14:42:28.387Z,66.77
2023-03-12T14:47:53.228Z,66.53
2023-03-12T14:53:25.108Z,66.77
2023-03-12T14:58:30.211Z,66.58
2023-03-12T15:03:49.867Z,66.55
2023-03-12T15:08:57.741Z,66.76
2023-03-12T15:14:09.254Z,66.92
2023-03-12T15:19:22.558Z,67.11
2023-03-12T15:24:26.823Z,66.80
2023-03-12T15:29:32.197Z,66.99
2023-03-12T15:34:40.714Z,67.06
2023-03-12T15:39:52.825Z,67.05
2023-03-12T15:45:03.137Z,67.08
2023-03-12T15:50:21.396Z,67.04
2023-03-12T15:55:31.305Z,66.62
2023-03-12T16:00:46.345Z,66.23
2023-03-12T16:05:52.031Z,65.49
2023-03-12T16:10:59.677Z,63.95
2023-03-12T16:16:07.843Z,63.90
2023-03-12T16:21:14.984Z,63.94
2023-03-12T16:26:26.970Z,63.76
2023-03-12T16:31:32.066Z,63.86
2023-03-12T16:36:40.936Z,63.79
2023-03-12T16:41:51.265Z,63.72
2023-03-12T16:46:58.913Z,63.77
2023-03-12T16:52:15.593Z,63.76
2023-03-12T16:57:41.374Z,63.99
2023-03-12T17:02:50.865Z,64.04
2023-03-12T17:08:01.482Z,63.98
2023-03-12T17:13:06.421Z,63.94
2023-03-12T17:18:14.896Z,64.46
2023-03-12T17:23:22.226Z,64.59
2023-03-12T17:28:30.008Z,64.80
2023-03-12T17:33:35.983Z,64.74
2023-03-12T17:38:43.350Z,65.01
2023-03-12T17:43:51.972Z,64.74
2023-03-12T17:49:00.312Z,65.45
2023-03-12T17:54:08.814Z,65.86
2023-03-12T17:59:16.064Z,65.89
2023-03-12T18:04:27.505Z,66.16
2023-03-12T18:09:33.857Z,66.66
2023-03-12T18:14:42.803Z,66.89
2023-03-12T18:19:48.475Z,67.08
2023-03-12T18:24:58.951Z,67.11
2023-03-12T18:30:05.277Z,67.30
2023-03-12T18:35:17.759Z,67.44
2023-03-12T18:40:26.524Z,67.91
2023-03-12T18:45:37.032Z,68.05
2023-03-12T18:50:44.705Z,67.94
2023-03-12T18:56:17.809Z,67.93
2023-03-12T19:01:24.026Z,68.13
2023-03-12T19:06:37.733Z,68.01
2023-03-12T19:11:52.549Z,68.14
2023-03-12T19:17:06.396Z,67.88
2023-03-12T19:22:14.246Z,68.03
2023-03-12T19:27:20.922Z,68.16
2023-03-12T19:32:40.667Z,68.32
2023-03-12T19:37:51.036Z,68.41
2023-03-12T19:42:59.030Z,68.67
2023-03-12T19:48:05.906Z,68.37
2023-03-12T19:53:13.633Z,68.21
2023-03-12T19:58:21.105Z,68.71
2023-03-12T20:03:27.984Z,68.46
2023-03-12T20:08:37.422Z,68.95
2023-03-12T20:13:54.590Z,68.96
2023-03-12T20:19:04.964Z,68.81
2023-03-12T20:24:12.285Z,69.07
2023-03-12T20:29:18.811Z,69.61
2023-03-12T20:34:29.167Z,70.04
2023-03-12T20:39:38.302Z,70.51
2023-03-12T20:44:47.125Z,70.62
2023-03-12T20:49:56.976Z,70.97
2023-03-12T20:55:04.320Z,71.71
2023-03-12T21:00:12.844Z,71.71
2023-03-12T21:05:23.267Z,72.79
2023-03-12T21:10:31.800Z,74.16
2023-03-12T21:15:39.238Z,75.03
2023-03-12T21:20:44.631Z,75.65
2023-03-12T21:26:00.272Z,76.41
2023-03-12T21:31:10.877Z,77.09
2023-03-12T21:36:17.193Z,77.25
2023-03-12T21:42:16.951Z,77.77
2023-03-12T21:47:20.854Z,78.26
2023-03-12T21:52:25.136Z,78.18
2023-03-12T21:57:30.789Z,78.67
2023-03-12T22:02:34.567Z,78.73
2023-03-12T22:07:39.182Z,79.15
2023-03-12T22:12:42.855Z,79.60
2023-03-12T22:17:46.878Z,79.58
2023-03-12T22:22:50.575Z,79.96
2023-03-12T22:27:54.188Z,80.35
2023-03-12T22:32:59.218Z,80.12
2023-03-12T22:38:03.006Z,80.83
2023-03-12T22:43:07.160Z,81.01
2023-03-12T22:48:11.979Z,81.03
2023-03-12T22:53:15.901Z,81.17
2023-03-12T22:58:21.806Z,81.57
2023-03-12T23:03:28.539Z,81.65
2023-03-12T23:08:32.794Z,81.71
2023-03-12T23:13:41.895Z,82.03
2023-03-12T23:18:47.984Z,81.92
2023-03-12T23:45:13.106Z,82.79
2023-03-12T23:50:18.463Z,82.95
2023-03-12T23:55:22.258Z,83.25
